Time;durP1;ratioP1;P1;durP2;ratioP2;P2;SDS_P1;SDS_P2;PMS_P1;PMS_P2;Temp;Humidity;BMP_temperature;BMP_pressure;BME280_temperature;BME280_humidity;BME280_pressure;Samples;Min_cycle;Max_cycle;Signal;HPM_P1;HPM_P2
2021/08/22 00:02:00;;;;;;;32.28;10.23;;;;;;;19.41;64.19;101477.03;1764405;81;25846;-60
2021/08/22 00:04:29;;;;;;;18.62;8.78;;;;;;;19.34;64.38;101472.27;1764740;80;25779;-61
2021/08/22 00:06:56;;;;;;;24.82;9.48;;;;;;;19.32;64.42;101481.13;1753752;80;26163;-59
2021/08/22 00:09:23;;;;;;;17.70;8.95;;;;;;;19.15;64.71;101475.41;1751881;80;25798;-60
2021/08/22 00:11:50;;;;;;;19.92;9.15;;;;;;;19.02;65.56;101475.95;1751630;81;28283;-60
2021/08/22 00:14:17;;;;;;;17.30;8.70;;;;;;;18.95;65.27;101480.41;1751724;81;25922;-59
2021/08/22 00:16:45;;;;;;;15.98;9.03;;;;;;;18.90;65.42;101482.27;1751484;81;25737;-59
2021/08/22 00:19:12;;;;;;;24.63;8.98;;;;;;;18.89;66.07;101473.75;1751889;81;25877;-60
2021/08/22 00:21:39;;;;;;;17.87;8.65;;;;;;;18.93;65.77;101477.87;1751435;81;25872;-59
2021/08/22 00:24:06;;;;;;;16.77;9.10;;;;;;;19.01;65.64;101479.21;1759583;81;27545;-59
2021/08/22 00:26:33;;;;;;;14.20;8.40;;;;;;;18.98;65.73;101476.82;1764495;79;25784;-59
2021/08/22 00:29:00;;;;;;;20.88;8.38;;;;;;;18.97;65.62;101481.09;1764858;80;25814;-59
2021/08/22 00:31:27;;;;;;;16.67;8.75;;;;;;;18.95;65.97;101477.69;1775095;80;26449;-59
2021/08/22 00:33:54;;;;;;;20.30;8.75;;;;;;;18.97;66.38;101477.01;1782843;80;25806;-60
2021/08/22 00:36:21;;;;;;;18.77;7.72;;;;;;;18.97;65.77;101479.20;1782665;80;28220;-60
2021/08/22 00:38:49;;;;;;;13.90;8.10;;;;;;;19.01;65.87;101481.94;1782752;80;25699;-60
2021/08/22 00:41:16;;;;;;;17.32;8.38;;;;;;;19.05;65.68;101481.07;1782817;80;25799;-60
2021/08/22 00:43:47;;;;;;;14.75;7.67;;;;;;;19.05;65.88;101477.81;1782121;80;26629;-60
2021/08/22 00:46:14;;;;;;;17.40;8.25;;;;;;;19.11;66.04;101479.00;1778127;80;25817;-60
2021/08/22 00:48:44;;;;;;;15.40;8.13;;;;;;;19.17;65.71;101482.91;1762233;80;27454;-59
2021/08/22 00:51:17;;;;;;;14.38;8.33;;;;;;;19.25;65.90;101486.96;1812707;79;26437;-60
2021/08/22 00:53:46;;;;;;;20.05;8.05;;;;;;;19.30;65.66;101490.03;1811899;79;26317;-60
2021/08/22 00:56:14;;;;;;;24.35;9.50;;;;;;;19.35;65.66;101496.32;1812880;78;25734;-59
2021/08/22 00:58:45;;;;;;;17.90;8.73;;;;;;;19.36;65.36;101501.59;1812573;77;25861;-59
2021/08/22 01:01:25;;;;;;;19.90;8.70;;;;;;;19.37;65.46;101501.06;1812771;79;27424;-59
2021/08/22 01:04:09;;;;;;;15.68;7.87;;;;;;;19.38;65.25;101505.49;1812440;78;25839;-60
2021/08/22 01:06:44;;;;;;;20.57;8.68;;;;;;;19.36;65.11;101504.84;1786870;78;25792;-59
2021/08/22 01:09:31;;;;;;;18.65;9.68;;;;;;;19.23;65.08;101506.24;1812387;78;25830;-60
2021/08/22 01:12:03;;;;;;;23.73;10.03;;;;;;;19.14;65.15;101511.91;1812520;78;26311;-59
2021/08/22 01:14:35;;;;;;;17.23;8.45;;;;;;;19.09;65.06;101511.07;1812578;78;28155;-60
2021/08/22 01:17:04;;;;;;;19.00;9.00;;;;;;;19.10;65.03;101516.00;1812442;78;25728;-59
2021/08/22 01:20:04;;;;;;;13.43;8.58;;;;;;;19.08;64.92;101518.91;1812668;78;25785;-59
2021/08/22 01:22:35;;;;;;;19.25;8.45;;;;;;;19.01;65.22;101522.84;1812658;79;25802;-59
2021/08/22 01:25:05;;;;;;;15.72;8.00;;;;;;;18.79;65.39;101520.29;1754975;80;25809;-60
2021/08/22 01:27:34;;;;;;;16.23;7.80;;;;;;;18.75;65.72;101518.91;1742193;81;29251;-60
2021/08/22 01:30:17;;;;;;;15.03;7.67;;;;;;;18.76;65.98;101516.04;1766667;81;25807;-60
2021/08/22 01:32:48;;;;;;;21.60;8.18;;;;;;;18.82;65.99;101515.00;1782530;80;25884;-60
2021/08/22 01:35:22;;;;;;;15.50;7.72;;;;;;;18.88;66.10;101522.47;1782361;80;25862;-60
2021/08/22 01:37:51;;;;;;;16.75;8.83;;;;;;;18.89;66.34;101513.27;1782510;79;25832;-59
2021/08/22 01:40:21;;;;;;;14.98;7.60;;;;;;;18.93;66.33;101514.15;1782364;80;28210;-59
2021/08/22 01:42:50;;;;;;;14.65;7.53;;;;;;;18.99;66.30;101513.97;1782312;79;25797;-59
2021/08/22 01:45:20;;;;;;;15.83;7.05;;;;;;;19.04;66.29;101517.05;1781697;80;26410;-59
2021/08/22 01:47:52;;;;;;;13.93;7.60;;;;;;;19.08;66.34;101511.56;1796120;79;25774;-59
2021/08/22 01:50:23;;;;;;;16.23;7.17;;;;;;;19.15;66.31;101514.95;1785794;80;25728;-59
2021/08/22 01:52:54;;;;;;;19.30;8.13;;;;;;;19.18;66.17;101514.61;1785988;80;27447;-60
2021/08/22 01:55:20;;;;;;;19.37;6.92;;;;;;;19.15;66.03;101516.31;1785634;80;26512;-58
2021/08/22 01:57:47;;;;;;;11.05;6.55;;;;;;;19.08;66.12;101517.55;1785688;80;25718;-59
2021/08/22 02:00:16;;;;;;;24.27;7.58;;;;;;;19.08;66.55;101519.75;1785669;80;26471;-59
2021/08/22 02:02:57;;;;;;;17.42;7.53;;;;;;;19.08;66.55;101518.91;1785989;80;25781;-60
2021/08/22 02:05:27;;;;;;;13.18;6.87;;;;;;;19.08;66.50;101520.27;1785578;80;28201;-59
2021/08/22 02:07:55;;;;;;;14.93;6.80;;;;;;;19.10;66.43;101512.74;1785288;80;25762;-59
2021/08/22 02:10:34;;;;;;;16.85;7.45;;;;;;;19.08;66.39;101512.09;1785902;80;25720;-59
2021/08/22 02:13:04;;;;;;;11.78;7.42;;;;;;;19.04;66.37;101510.23;1785582;80;26483;-59
2021/08/22 02:15:41;;;;;;;17.45;8.33;;;;;;;19.02;66.11;101508.68;1785891;80;25778;-59
2021/08/22 02:18:16;;;;;;;15.93;7.12;;;;;;;18.97;66.00;101505.11;1785884;79;27819;-59
2021/08/22 02:20:46;;;;;;;16.70;9.03;;;;;;;18.92;65.99;101504.76;1760443;80;25841;-59
2021/08/22 02:23:13;;;;;;;15.50;8.08;;;;;;;18.85;66.02;101506.48;1780703;80;26565;-60
2021/08/22 02:25:43;;;;;;;16.40;8.48;;;;;;;18.69;66.45;101508.19;1765382;79;25799;-60
2021/08/22 02:28:10;;;;;;;12.40;7.42;;;;;;;18.56;66.64;101509.23;1764695;80;25912;-59
2021/08/22 02:30:38;;;;;;;16.27;7.97;;;;;;;18.52;67.16;101521.48;1769107;80;27430;-59
2021/08/22 02:33:07;;;;;;;17.92;8.48;;;;;;;18.50;66.83;101516.73;1782541;80;25842;-59
2021/08/22 02:35:35;;;;;;;12.15;7.50;;;;;;;18.49;66.86;101517.76;1782675;80;25758;-59
2021/08/22 02:38:03;;;;;;;16.70;7.17;;;;;;;18.47;67.12;101512.45;1782678;80;26482;-59
2021/08/22 02:40:30;;;;;;;16.73;7.42;;;;;;;18.38;67.24;101517.06;1782894;80;25731;-59
2021/08/22 02:42:58;;;;;;;16.67;7.10;;;;;;;18.27;68.18;101521.48;1764917;80;27484;-59
2021/08/22 02:45:26;;;;;;;17.05;7.08;;;;;;;18.13;68.69;101523.86;1783985;80;25826;-59
2021/08/22 02:47:57;;;;;;;12.30;6.90;;;;;;;18.03;69.21;101525.88;1766291;80;25792;-59
2021/08/22 02:50:22;;;;;;;14.10;7.80;;;;;;;18.01;69.75;101516.19;1767110;81;25871;-58
2021/08/22 02:52:49;;;;;;;13.85;7.65;;;;;;;18.05;69.38;101522.48;1767616;81;25731;-60
2021/08/22 02:55:18;;;;;;;12.58;6.80;;;;;;;18.12;69.44;101518.07;1767948;81;28267;-60
2021/08/22 02:57:45;;;;;;;13.18;7.25;;;;;;;18.19;69.25;101526.92;1767502;79;26035;-59
2021/08/22 03:00:14;;;;;;;15.20;6.67;;;;;;;18.26;69.29;101526.09;1767612;79;25851;-61
2021/08/22 03:02:41;;;;;;;21.40;7.42;;;;;;;18.32;69.02;101528.65;1767556;79;25808;-60
2021/08/22 03:05:11;;;;;;;17.35;6.62;;;;;;;18.31;69.27;101536.48;1767874;81;25699;-60
2021/08/22 03:07:38;;;;;;;15.63;7.10;;;;;;;18.23;69.84;101541.92;1766911;81;28615;-60
2021/08/22 03:10:07;;;;;;;14.30;7.33;;;;;;;18.14;69.98;101541.91;1767602;81;25728;-61
2021/08/22 03:12:34;;;;;;;16.30;6.92;;;;;;;18.17;69.85;101546.16;1767377;79;25735;-60
2021/08/22 03:15:03;;;;;;;12.88;7.20;;;;;;;18.23;69.77;101542.75;1767820;81;25776;-60
2021/08/22 03:17:30;;;;;;;10.88;7.53;;;;;;;18.35;69.79;101540.55;1767541;81;25855;-60
2021/08/22 03:19:57;;;;;;;20.82;7.53;;;;;;;18.46;69.86;101540.75;1767741;81;27430;-59
2021/08/22 03:22:24;;;;;;;16.75;6.90;;;;;;;18.53;69.35;101541.77;1767575;79;25494;-60
2021/08/22 03:24:51;;;;;;;17.05;7.58;;;;;;;18.59;69.08;101549.77;1797255;79;25763;-60
2021/08/22 03:27:18;;;;;;;21.05;8.33;;;;;;;18.62;68.92;101539.88;1799679;79;25848;-60
2021/08/22 03:29:45;;;;;;;15.38;7.65;;;;;;;18.69;68.94;101544.98;1791592;79;25762;-60
2021/08/22 03:32:12;;;;;;;19.42;7.75;;;;;;;18.72;68.72;101540.56;1783794;80;27468;-60
2021/08/22 03:34:39;;;;;;;9.98;6.87;;;;;;;18.76;68.46;101544.66;1761942;81;26013;-60
2021/08/22 03:37:06;;;;;;;15.88;7.35;;;;;;;18.80;68.45;101542.93;1822374;78;25781;-60
2021/08/22 03:39:34;;;;;;;25.77;6.95;;;;;;;18.82;68.32;101547.21;1822925;78;25724;-60
2021/08/22 03:42:01;;;;;;;13.95;7.30;;;;;;;18.82;68.14;101544.48;1822415;78;25517;-60
2021/08/22 03:44:27;;;;;;;19.42;7.83;;;;;;;18.85;68.16;101550.09;1822880;78;27436;-60
2021/08/22 03:46:54;;;;;;;23.35;7.97;;;;;;;18.87;68.35;101555.72;1822544;78;25755;-60
2021/08/22 03:49:22;;;;;;;12.43;7.42;;;;;;;18.87;68.08;101565.78;1823296;78;25782;-59
2021/08/22 03:51:48;;;;;;;21.07;8.15;;;;;;;18.82;67.86;101564.93;1825148;78;25797;-59
2021/08/22 03:54:15;;;;;;;15.13;6.90;;;;;;;18.78;67.85;101566.28;1825429;78;25930;-60
2021/08/22 03:56:42;;;;;;;11.55;7.33;;;;;;;18.76;67.89;101566.46;1825170;78;27473;-59
2021/08/22 03:59:10;;;;;;;16.48;7.97;;;;;;;18.71;67.56;101568.83;1825357;78;25969;-59
2021/08/22 04:01:38;;;;;;;15.35;7.75;;;;;;;18.71;67.55;101567.47;1824982;78;25644;-59
2021/08/22 04:04:06;;;;;;;13.93;7.97;;;;;;;18.70;67.58;101570.38;1824960;78;25789;-60
2021/08/22 04:06:37;;;;;;;11.85;6.83;;;;;;;18.59;67.76;101570.21;1824340;78;25794;-60
2021/08/22 04:09:04;;;;;;;18.98;7.03;;;;;;;18.48;67.96;101571.38;1759944;81;28303;-60
2021/08/22 04:11:32;;;;;;;12.50;7.10;;;;;;;18.35;68.74;101580.56;1786093;79;25827;-59
2021/08/22 04:13:58;;;;;;;13.18;7.45;;;;;;;18.30;68.71;101572.37;1786467;80;25752;-59
2021/08/22 04:16:25;;;;;;;12.23;6.08;;;;;;;18.30;69.08;101571.54;1786526;80;25770;-60
2021/08/22 04:18:52;;;;;;;16.95;6.85;;;;;;;18.28;68.99;101570.36;1765330;80;25812;-59
2021/08/22 04:21:20;;;;;;;10.50;6.33;;;;;;;18.28;69.04;101562.19;1765065;81;26859;-60
2021/08/22 04:23:47;;;;;;;11.88;6.60;;;;;;;18.33;69.15;101566.27;1796662;79;25756;-59
2021/08/22 04:26:14;;;;;;;11.38;6.55;;;;;;;18.42;69.25;101564.72;1802520;79;25818;-60
2021/08/22 04:28:41;;;;;;;13.55;6.78;;;;;;;18.56;69.26;101570.02;1786469;79;25808;-60
2021/08/22 04:31:07;;;;;;;20.72;7.83;;;;;;;18.73;69.25;101575.50;1806244;79;25722;-59
2021/08/22 04:33:35;;;;;;;13.72;6.25;;;;;;;18.86;68.96;101583.99;1792611;80;27486;-60
2021/08/22 04:36:02;;;;;;;12.88;6.80;;;;;;;18.94;68.53;101596.81;1792612;80;25703;-60
2021/08/22 04:38:29;;;;;;;13.48;7.05;;;;;;;18.93;68.27;101590.48;1792530;80;25714;-60
2021/08/22 04:40:56;;;;;;;9.93;6.05;;;;;;;18.88;68.14;101596.95;1792651;80;26452;-59
2021/08/22 04:43:24;;;;;;;15.38;7.20;;;;;;;18.82;68.21;101594.91;1792332;80;25809;-60
2021/08/22 04:45:51;;;;;;;10.95;6.83;;;;;;;18.87;68.20;101587.06;1796228;78;28283;-60
2021/08/22 04:48:18;;;;;;;9.40;6.45;;;;;;;18.87;68.13;101587.59;1792537;80;25636;-60
2021/08/22 04:50:45;;;;;;;14.53;6.80;;;;;;;18.92;68.24;101594.23;1820080;78;25481;-59
2021/08/22 04:53:12;;;;;;;20.35;7.80;;;;;;;18.98;68.06;101589.97;1786700;80;25705;-59
2021/08/22 04:55:39;;;;;;;18.60;7.53;;;;;;;19.08;67.97;101596.10;1819443;78;25827;-59
2021/08/22 04:58:06;;;;;;;12.65;6.87;;;;;;;19.11;67.68;101600.35;1786914;79;27538;-59
2021/08/22 05:00:33;;;;;;;15.43;7.78;;;;;;;19.15;67.72;101598.12;1818892;78;25714;-58
2021/08/22 05:03:00;;;;;;;14.87;7.42;;;;;;;19.21;67.55;101594.20;1786939;79;25780;-58
2021/08/22 05:05:27;;;;;;;24.70;7.97;;;;;;;19.29;67.37;101593.34;1815528;78;25839;-59
2021/08/22 05:07:57;;;;;;;16.50;7.37;;;;;;;19.42;67.28;101592.80;1786775;80;25759;-60
2021/08/22 05:10:25;;;;;;;15.65;7.20;;;;;;;19.57;67.07;101592.06;1786648;80;27485;-59
2021/08/22 05:12:52;;;;;;;14.75;7.35;;;;;;;19.61;66.47;101590.17;1786848;80;25782;-59
2021/08/22 05:15:19;;;;;;;11.88;7.40;;;;;;;19.65;66.24;101590.17;1786460;80;25810;-59
2021/08/22 05:17:45;;;;;;;17.40;7.35;;;;;;;19.72;66.08;101590.33;1786920;80;25916;-60
2021/08/22 05:20:13;;;;;;;24.95;7.67;;;;;;;19.74;65.69;101584.15;1786812;80;25694;-60
2021/08/22 05:22:40;;;;;;;13.88;7.42;;;;;;;19.72;65.62;101587.59;1787044;80;27491;-59
2021/08/22 05:25:09;;;;;;;18.52;7.28;;;;;;;19.78;65.60;101586.01;1786265;80;25777;-60
2021/08/22 05:27:35;;;;;;;16.00;7.58;;;;;;;19.84;65.44;101593.51;1786409;80;25767;-58
2021/08/22 05:30:04;;;;;;;13.00;7.42;;;;;;;19.83;65.21;101595.38;1767449;81;26441;-59
2021/08/22 05:32:31;;;;;;;14.90;6.75;;;;;;;19.86;65.35;101596.92;1799178;79;25448;-59
2021/08/22 05:34:58;;;;;;;14.83;7.70;;;;;;;19.90;65.31;101601.54;1796748;79;27561;-60
2021/08/22 05:37:25;;;;;;;14.33;6.75;;;;;;;19.92;65.11;101594.86;1773780;79;25734;-60
2021/08/22 05:39:52;;;;;;;8.30;5.53;;;;;;;20.00;65.26;101604.88;1793680;79;25837;-59
2021/08/22 05:42:19;;;;;;;8.43;5.87;;;;;;;20.10;64.88;101605.52;1791704;79;26411;-60
2021/08/22 05:44:46;;;;;;;10.32;6.10;;;;;;;20.14;64.50;101605.50;1795548;79;25815;-60
2021/08/22 05:47:12;;;;;;;15.30;6.28;;;;;;;20.12;64.21;101604.83;1794600;79;27484;-59
2021/08/22 05:49:42;;;;;;;23.00;7.12;;;;;;;20.11;64.33;101605.84;1790425;79;25906;-59
2021/08/22 05:52:09;;;;;;;10.28;6.20;;;;;;;20.20;64.49;101607.17;1774207;79;25708;-59
2021/08/22 05:54:37;;;;;;;10.53;6.12;;;;;;;20.24;64.23;101612.63;1793384;79;25823;-58
2021/08/22 05:57:05;;;;;;;11.75;6.42;;;;;;;20.21;64.02;101611.11;1796189;79;25831;-58
2021/08/22 05:59:33;;;;;;;12.50;6.22;;;;;;;20.16;64.11;101609.41;1766622;79;28478;-59
2021/08/22 06:02:01;;;;;;;20.62;9.60;;;;;;;20.15;64.01;101617.27;1798102;79;25737;-61
2021/08/22 06:04:28;;;;;;;17.65;8.38;;;;;;;20.08;64.53;101607.56;1798059;79;25761;-59
2021/08/22 06:06:54;;;;;;;28.42;17.12;;;;;;;20.01;64.75;101609.31;1798463;79;25856;-60
2021/08/22 06:09:23;;;;;;;17.52;8.05;;;;;;;20.05;64.79;101615.27;1798233;79;25784;-59
2021/08/22 06:11:50;;;;;;;16.07;7.00;;;;;;;20.15;64.74;101611.30;1798612;79;27487;-59
2021/08/22 06:14:17;;;;;;;12.45;7.20;;;;;;;20.32;64.55;101616.14;1797859;79;25818;-60
2021/08/22 06:16:44;;;;;;;8.53;6.05;;;;;;;20.49;64.33;101617.39;1797878;79;25798;-59
2021/08/22 06:19:11;;;;;;;9.93;5.80;;;;;;;20.65;63.66;101610.97;1797523;79;25811;-59
2021/08/22 06:21:38;;;;;;;8.10;5.37;;;;;;;20.74;63.47;101610.43;1794510;79;26512;-60
2021/08/22 06:24:06;;;;;;;11.30;5.30;;;;;;;20.87;63.50;101616.64;1794631;79;27468;-59
2021/08/22 06:26:32;;;;;;;8.55;5.20;;;;;;;21.00;63.13;101610.55;1792939;79;25735;-61
2021/08/22 06:29:00;;;;;;;13.65;5.37;;;;;;;21.05;62.56;101617.17;1791136;79;25771;-59
2021/08/22 06:31:27;;;;;;;11.65;6.37;;;;;;;21.11;62.65;101612.84;1793036;79;26413;-59
2021/08/22 06:33:54;;;;;;;8.03;4.90;;;;;;;21.19;62.28;101611.89;1793848;79;26548;-59
2021/08/22 06:36:21;;;;;;;13.72;5.50;;;;;;;21.25;61.84;101617.48;1791686;79;28259;-60
2021/08/22 06:38:48;;;;;;;10.75;5.75;;;;;;;21.30;61.73;101616.05;1792163;79;25769;-60
2021/08/22 06:41:15;;;;;;;15.15;5.92;;;;;;;21.38;61.51;101618.73;1787327;79;25743;-60
2021/08/22 06:43:42;;;;;;;11.30;5.47;;;;;;;21.44;61.20;101620.71;1794669;79;26602;-60
2021/08/22 06:46:09;;;;;;;8.33;5.90;;;;;;;21.43;60.63;101619.84;1789618;79;26341;-59
2021/08/22 06:48:36;;;;;;;10.40;5.25;;;;;;;21.39;60.27;101625.38;1788896;79;27424;-59
2021/08/22 06:51:03;;;;;;;15.25;5.95;;;;;;;21.33;60.34;101628.00;1791986;79;25818;-59
2021/08/22 06:53:30;;;;;;;11.63;6.00;;;;;;;21.26;60.44;101625.16;1792426;79;25791;-58
2021/08/22 06:55:57;;;;;;;9.48;5.58;;;;;;;21.20;60.78;101622.64;1789511;79;25837;-59
2021/08/22 06:58:24;;;;;;;13.30;6.25;;;;;;;21.08;60.97;101627.72;1793998;79;25807;-59
2021/08/22 07:00:51;;;;;;;15.60;6.75;;;;;;;21.06;61.27;101622.98;1795838;79;28344;-59
2021/08/22 07:03:18;;;;;;;13.05;6.40;;;;;;;20.96;61.68;101630.58;1794177;79;25813;-59
2021/08/22 07:05:45;;;;;;;11.35;5.47;;;;;;;20.90;62.48;101632.17;1798143;79;25748;-59
2021/08/22 07:08:12;;;;;;;9.95;5.62;;;;;;;20.88;62.68;101630.66;1794524;79;25862;-59
2021/08/22 07:10:41;;;;;;;9.18;6.05;;;;;;;20.90;62.78;101632.67;1795962;79;25841;-59
2021/08/22 07:13:08;;;;;;;10.32;6.37;;;;;;;21.00;62.92;101630.53;1791597;79;27507;-59
2021/08/22 07:15:36;;;;;;;18.67;6.85;;;;;;;21.13;62.89;101625.80;1792326;79;25835;-59
2021/08/22 07:18:03;;;;;;;10.70;5.65;;;;;;;21.29;62.85;101637.64;1785087;79;25823;-59
2021/08/22 07:20:30;;;;;;;10.18;5.45;;;;;;;21.44;62.45;101635.77;1790283;79;26546;-59
2021/08/22 07:22:57;;;;;;;9.08;5.22;;;;;;;21.59;62.29;101633.07;1793991;79;25815;-59
2021/08/22 07:25:24;;;;;;;13.10;5.60;;;;;;;21.76;61.83;101636.98;1790546;79;27459;-60
2021/08/22 07:28:00;;;;;;;8.78;5.30;;;;;;;21.88;61.52;101630.83;1793198;79;25799;-60
2021/08/22 07:30:30;;;;;;;14.25;6.35;;;;;;;21.99;60.54;101639.08;1792105;79;26387;-60
2021/08/22 07:33:01;;;;;;;10.53;5.50;;;;;;;22.08;59.97;101638.47;1792418;79;26483;-60
2021/08/22 07:35:25;;;;;;;8.33;5.47;;;;;;;22.04;59.85;101623.44;1795737;79;26500;-60
2021/08/22 07:37:52;;;;;;;9.23;5.58;;;;;;;22.25;59.06;101644.55;1782893;79;27465;-60
2021/08/22 07:40:19;;;;;;;9.80;5.55;;;;;;;22.24;59.25;101641.48;1794421;79;26305;-60
2021/08/22 07:42:46;;;;;;;14.07;5.90;;;;;;;22.33;59.59;101642.23;1795968;79;26501;-60
2021/08/22 07:45:14;;;;;;;7.75;6.28;;;;;;;22.47;59.33;101641.89;1792403;79;25949;-60
2021/08/22 07:47:41;;;;;;;11.20;6.03;;;;;;;22.57;58.69;101638.31;1793348;79;25834;-59
2021/08/22 07:50:09;;;;;;;10.15;5.35;;;;;;;22.71;58.09;101635.19;1792049;79;27462;-60
2021/08/22 07:52:37;;;;;;;11.33;5.83;;;;;;;22.78;57.42;101646.19;1788605;79;25971;-60
2021/08/22 07:55:06;;;;;;;8.08;5.45;;;;;;;22.81;56.79;101639.82;1791810;79;25792;-60
2021/08/22 07:57:33;;;;;;;8.68;5.17;;;;;;;22.75;57.20;101639.21;1788899;79;25779;-60
2021/08/22 08:00:00;;;;;;;8.13;5.72;;;;;;;22.83;56.91;101643.19;1791572;79;25762;-60
2021/08/22 08:02:27;;;;;;;9.95;5.85;;;;;;;22.88;57.12;101637.65;1794302;79;27496;-59
2021/08/22 08:04:54;;;;;;;13.70;5.08;;;;;;;22.94;56.23;101642.34;1786699;79;25863;-59
2021/08/22 08:07:21;;;;;;;14.18;4.95;;;;;;;22.94;56.30;101633.60;1785200;79;25767;-60
2021/08/22 08:09:49;;;;;;;10.72;4.55;;;;;;;23.01;55.26;101639.12;1785289;79;25803;-59
2021/08/22 08:12:16;;;;;;;10.15;4.55;;;;;;;23.02;55.05;101633.97;1785204;80;25799;-59
2021/08/22 08:14:43;;;;;;;8.88;4.75;;;;;;;23.06;55.08;101627.55;1788569;79;27464;-60
2021/08/22 08:17:10;;;;;;;16.90;12.75;;;;;;;23.23;54.55;101624.03;1802846;78;26380;-61
2021/08/22 08:19:37;;;;;;;15.38;6.40;;;;;;;23.33;54.74;101625.05;1808964;78;25783;-60
2021/08/22 08:22:06;;;;;;;11.88;4.85;;;;;;;23.49;54.42;101624.72;1800369;78;25790;-60
2021/08/22 08:24:33;;;;;;;7.45;4.62;;;;;;;23.65;53.70;101623.56;1804719;78;25821;-60
2021/08/22 08:27:00;;;;;;;8.45;4.45;;;;;;;23.83;53.74;101623.03;1781381;80;28838;-60
2021/08/22 08:29:27;;;;;;;6.72;3.80;;;;;;;23.95;53.34;101619.71;1777461;80;25791;-59
2021/08/22 08:31:54;;;;;;;10.32;3.98;;;;;;;24.15;53.25;101615.69;1779296;80;25971;-59
2021/08/22 08:34:21;;;;;;;12.23;5.22;;;;;;;24.25;52.03;101618.87;1786264;80;26423;-59
2021/08/22 08:36:49;;;;;;;22.10;8.50;;;;;;;24.35;51.33;101620.70;1785142;80;25774;-60
2021/08/22 08:39:16;;;;;;;8.95;5.40;;;;;;;24.33;50.79;101623.34;1777708;80;27468;-60
2021/08/22 08:41:42;;;;;;;9.05;4.33;;;;;;;24.24;50.60;101619.95;1778938;79;25761;-60
2021/08/22 08:44:12;;;;;;;6.83;3.83;;;;;;;24.36;50.80;101621.56;1777122;80;25704;-60
2021/08/22 08:46:51;;;;;;;7.65;4.33;;;;;;;24.42;50.30;101622.09;1782289;80;26477;-60
2021/08/22 08:49:32;;;;;;;7.08;3.75;;;;;;;24.45;50.30;101624.44;1784624;79;25849;-60
2021/08/22 08:52:36;;;;;;;5.60;3.62;;;;;;;24.48;49.88;101615.75;1782198;80;28119;-60
2021/08/22 08:55:41;;;;;;;7.95;3.80;;;;;;;24.56;49.97;101613.34;1784113;80;25712;-59
2021/08/22 08:58:08;;;;;;;7.25;3.80;;;;;;;24.77;49.86;101608.20;1783799;80;25699;-59
2021/08/22 09:00:39;;;;;;;5.40;3.58;;;;;;;24.89;49.23;101611.17;1787506;79;26474;-60
2021/08/22 09:03:07;;;;;;;5.85;3.55;;;;;;;24.92;49.06;101611.30;1788443;79;25800;-59
2021/08/22 09:05:50;;;;;;;13.85;3.75;;;;;;;25.08;48.74;101607.25;1780196;80;27468;-60
2021/08/22 09:09:13;;;;;;;8.98;4.00;;;;;;;25.28;48.58;101607.25;1782283;80;25931;-60
2021/08/22 09:12:20;;;;;;;11.00;3.62;;;;;;;25.46;47.08;101605.22;1786788;79;25761;-59
2021/08/22 09:15:30;;;;;;;9.93;3.02;;;;;;;25.76;45.83;101600.03;1741033;80;25836;-60
2021/08/22 09:18:36;;;;;;;9.30;3.35;;;;;;;26.04;46.24;101596.10;1784010;79;25822;-59
2021/08/22 09:21:57;;;;;;;3.90;2.83;;;;;;;26.38;46.23;101598.71;1785702;79;28128;-59
2021/08/22 09:25:02;;;;;;;7.72;3.02;;;;;;;26.69;45.28;101591.47;1775352;80;25877;-60
2021/08/22 09:28:26;;;;;;;3.80;2.95;;;;;;;26.95;44.07;101588.20;1786065;79;26369;-59
2021/08/22 09:31:42;;;;;;;14.87;3.85;;;;;;;27.32;43.32;101590.52;1779943;80;25759;-59
2021/08/22 09:34:50;;;;;;;11.95;3.50;;;;;;;27.86;42.16;101587.16;1784513;79;25839;-60
2021/08/22 09:38:07;;;;;;;3.70;2.90;;;;;;;28.31;41.15;101589.23;1690208;84;28708;-59
2021/08/22 09:41:16;;;;;;;4.42;3.20;;;;;;;28.89;40.83;101587.15;1781091;79;25753;-60
2021/08/22 09:44:32;;;;;;;5.55;2.58;;;;;;;29.66;38.61;101583.92;1786687;80;26420;-60
2021/08/22 09:47:50;;;;;;;11.80;2.75;;;;;;;30.12;37.10;101579.03;1778975;80;26495;-62
2021/08/22 09:51:10;;;;;;;3.62;2.40;;;;;;;30.87;36.82;101570.09;1779239;80;25798;-61
2021/08/22 09:54:35;;;;;;;4.70;2.42;;;;;;;31.40;35.30;101575.33;1792806;80;26929;-60
2021/08/22 09:57:59;;;;;;;9.53;2.80;;;;;;;31.97;35.26;101569.92;1793182;79;25826;-61
2021/08/22 10:01:10;;;;;;;6.33;2.70;;;;;;;32.53;33.84;101572.15;1788493;80;25724;-60
2021/08/22 10:04:11;;;;;;;5.40;2.30;;;;;;;33.13;33.19;101574.86;1791111;79;26438;-60
2021/08/22 10:07:06;;;;;;;2.62;2.00;;;;;;;33.66;32.22;101574.86;1784629;80;25738;-60
2021/08/22 10:10:00;;;;;;;4.92;2.00;;;;;;;34.32;31.26;101574.78;1776113;79;28208;-60
2021/08/22 10:12:27;;;;;;;10.03;2.15;;;;;;;34.68;29.73;101566.97;1783855;79;25875;-60
2021/08/22 10:14:54;;;;;;;6.20;2.00;;;;;;;34.89;29.37;101564.45;1783881;79;26181;-60
2021/08/22 10:17:26;;;;;;;4.62;2.55;;;;;;;35.16;27.39;101566.64;1788006;79;25754;-64
2021/08/22 10:19:56;;;;;;;3.17;1.65;;;;;;;35.02;27.08;101565.84;1790096;79;26287;-61
2021/08/22 10:22:32;;;;;;;2.47;1.75;;;;;;;35.05;28.30;101561.64;1792975;80;28301;-60
2021/08/22 10:25:03;;;;;;;2.45;1.72;;;;;;;35.59;27.56;101558.70;1792529;80;25724;-61
2021/08/22 10:27:37;;;;;;;3.75;1.67;;;;;;;36.12;26.25;101555.31;1792940;79;25764;-60
2021/08/22 10:30:21;;;;;;;5.25;2.05;;;;;;;36.43;26.29;101551.47;1760095;80;25779;-61
2021/08/22 10:33:06;;;;;;;6.25;1.87;;;;;;;36.99;24.67;101555.72;1776950;79;25744;-61
2021/08/22 10:35:33;;;;;;;10.78;2.02;;;;;;;37.14;24.80;101553.89;1777475;79;27472;-60
2021/08/22 10:38:25;;;;;;;3.77;1.92;;;;;;;37.31;24.58;101550.03;1777320;80;25799;-60
2021/08/22 10:40:54;;;;;;;4.30;1.47;;;;;;;37.24;24.40;101542.55;1777454;79;25739;-61
2021/08/22 10:43:27;;;;;;;5.40;2.45;;;;;;;37.52;24.62;101537.18;1777633;80;26390;-60
2021/08/22 10:45:55;;;;;;;9.05;1.87;;;;;;;37.91;24.36;101540.28;1775254;80;25759;-60
2021/08/22 10:48:29;;;;;;;3.67;1.80;;;;;;;38.31;23.42;101538.53;1761291;81;27485;-59
2021/08/22 10:51:07;;;;;;;1.87;1.75;;;;;;;38.43;23.58;101539.48;1780944;80;25810;-60
2021/08/22 10:53:36;;;;;;;7.83;1.80;;;;;;;38.39;23.06;101533.64;1784979;80;25807;-59
2021/08/22 10:56:29;;;;;;;2.33;1.85;;;;;;;38.77;23.54;101525.67;1783853;79;25833;-60
2021/08/22 10:59:08;;;;;;;2.33;1.90;;;;;;;39.13;22.35;101532.02;1793320;79;26260;-64
2021/08/22 11:01:42;;;;;;;6.95;2.20;;;;;;;39.25;22.52;101531.52;1793131;80;27478;-62
2021/08/22 11:04:13;;;;;;;2.80;1.92;;;;;;;39.12;21.91;101530.36;1792837;79;25737;-61
2021/08/22 11:07:02;;;;;;;2.33;1.87;;;;;;;38.92;21.89;101529.62;1786910;79;25905;-62
2021/08/22 11:09:46;;;;;;;5.28;1.90;;;;;;;39.24;21.51;101524.20;1792976;79;26107;-61
2021/08/22 11:12:26;;;;;;;6.45;2.33;;;;;;;39.44;21.58;101515.91;1786271;80;25849;-60
2021/08/22 11:14:54;;;;;;;2.55;1.82;;;;;;;39.56;21.60;101513.39;1789459;79;27365;-60
2021/08/22 11:17:21;;;;;;;3.95;1.72;;;;;;;39.72;21.35;101513.88;1784206;80;25835;-60
2021/08/22 11:19:48;;;;;;;2.02;1.75;;;;;;;39.84;20.61;101514.75;1788025;80;25816;-60
2021/08/22 11:22:29;;;;;;;2.98;1.90;;;;;;;39.47;20.86;101510.22;1788110;80;25875;-60
2021/08/22 11:24:58;;;;;;;3.47;1.60;;;;;;;39.72;21.16;101514.47;1792558;79;25809;-61
2021/08/22 11:27:28;;;;;;;1.70;1.57;;;;;;;40.19;20.36;101508.00;1792762;80;27472;-61
2021/08/22 11:30:01;;;;;;;1.60;1.50;;;;;;;40.44;20.28;101504.81;1762086;79;25845;-61
2021/08/22 11:32:29;;;;;;;2.83;1.75;;;;;;;40.57;19.99;101508.13;1761561;81;26501;-61
2021/08/22 11:35:18;;;;;;;5.40;1.80;;;;;;;40.79;19.35;101500.22;1786178;79;26136;-60
2021/08/22 11:37:46;;;;;;;5.60;1.70;;;;;;;40.44;19.16;101495.79;1781719;79;26772;-61
2021/08/22 11:40:17;;;;;;;7.30;1.80;;;;;;;40.56;19.07;101491.55;1785976;79;27372;-61
2021/08/22 11:42:49;;;;;;;2.37;1.70;;;;;;;40.37;18.96;101487.78;1788299;80;25866;-61
2021/08/22 11:45:20;;;;;;;3.25;2.12;;;;;;;40.13;19.83;101483.05;1784391;79;25765;-61